McFarland, CA

9:04 PM PDT on September 19, 2014 (GMT -0700)
Hanford Municipal | Change Station
CLOSE
Current Station
Airport
Location: Hanford,
Elevation: 243 ft
Nearby Weather Stations

Elev 243 ft 36.32 °N, 119.63 °W | Updated 11 minutes ago

Clear
Clear
80 °F
Feels Like 80 °F
N
0
Wind Variable Wind from North

Today
High -- | Low -- °F
--% Chance of Precip.
Yesterday
High -- | Low -- °F
Precip. -- in
6:42 AM 6:58 PM
Waning Crescent, 15% visible
Pressure 29.83 in
Visibility 10.0 miles
Clouds Clear
Heat Index 80 °F
Dew Point 57 °F
Humidity 45%
Rainfall 0.00 in
Snow Depth 0 in , 0 in , 0 in
UV 0 out of 12
Pollen 6.60 out of 12
PM2.5 Unhealthy
Flu Activity Not available.
METAR KHJO 200353Z AUTO 00000KT 10SM CLR 27/14 A2983 RMK AO2 SLP100 T02670139

More Conditions Fewer Conditions

Pressure 29.83 in
Visibility 10.0 miles
Clouds Clear
Heat Index 80 °F
Dew Point 57 °F
Humidity 45%
Rainfall 0.00 in
Snow Depth 0 in , 0 in , 0 in
UV 0 out of 12
Pollen 6.60 out of 12
PM2.5 Unhealthy
Flu Activity Not available.
METAR KHJO 200353Z AUTO 00000KT 10SM CLR 27/14 A2983 RMK AO2 SLP100 T02670139

More Conditions Fewer Conditions

10-Day Weather Forecast

Almanac

Astronomy

Sep. 19, 2014 Rise Set
Actual Time 6:42 AM PDT 6:58 PM PDT
Civil Twilight 6:17 AM PDT 7:23 PM PDT
Nautical Twilight 5:47 AM PDT 7:53 PM PDT
Astronomical Twilight 5:16 AM PDT 8:23 PM PDT
Moon 2:38 AM PDT (9/19) 4:23 PM PDT (9/19)
Length of Visible Light 13h 06m
Length of Day
12h 15m
Tomorrow will be 2m 15s shorter.
Waning Crescent, 15% of the Moon is Illuminated
Sep 20
Waning Crescent
Sep 24
New
Oct 1
First Quarter
Oct 8
Full
Oct 15
Last Quarter

Today's Extremes

State Highs State Lows

Community

WunderPhotos

Upload Photos

1,754,777 photos uploaded!

WunderBlogs® & News

Nearby

Air Quality

  Air Quality AQ Index Pollutant
Yesterday Good
OZONE
Yesterday Good
PM2.5
Current Unhealthy
PM2.5
Friday Good
OZONE
Saturday Moderate
PM2.5
Sunday Moderate
OZONE
Monday Moderate
PM2.5
Tuesday Moderate
OZONE
Wednesday Moderate
PM2.5

Snow Depth

Station Depth Elevation
Leavitt Meadows 0 in 7200 ft
CSS Lab 0 in 6900 ft
Blue Lakes 0 in 8000 ft
Adin Mountain 0 in 6200 ft
Leavitt Lake 0 in 9400 ft

Earthquake Activity

City Distance Mag. Time & Date
Inyokern, California 80 miles 3.1 5:33 PM PDT
2014-09-19
Corcoran, California 35 miles 2.9 3:59 PM PDT
2014-09-18
Minimum magnitude displayed is 2.5.

Coastal Water Temperatures

Place Temperature
No Stations Reporting

Nearby Weather Stations